Portada
METAR-TAF:

METAR-TAF

Aeroports :

Rajkot, Índia

latitud: 22-18N, longitud: 070-47E, altitud: 134 m

Observació

L'informe es va fer fa 1 hora i 33 minuts, a les 21:00 UTC
Vent 4 kt del Est/Sud-Est
Temperatura 24°C
Humitat 36%
Pressió 1014 hPa
Visibilitat: 6000 m

METAR: VARK 172100Z 11004KT 6000 NSC 24/08 Q1014

Hora: 04:03 (22:33 UTC)

Pronòstic

L'informe es va fer fa 2 hores i 33 minuts, a les 20:00 UTC
Pronòstic vàlid del 17 a les 21 UTC al 18 a les 06 UTC
Vent 6 kt del Est/Nord-Est
Visibilitat: 6000 m
Evolucionant progressivament
l' 18 a les 01 UTC al 18 a les 03 UTC
Visibilitat: 5000 m
calitja
Evolucionant progressivament
l' 18 a les 04 UTC al 18 a les 06 UTC
Visibilitat: 6000 m

TAF: VARK 172000Z 1721/1806 07006KT 6000 NSC BECMG 1801/1803 5000 HZ BECMG 1804/1806 6000

Observacions i pronòstics meteorològics de més de 4000 aeroports (METAR i TAF).

Les estacions disponibles són els punts grocs i vermells al mapa.

Posi el ratolí al punt desitjat per veure el nom de l'estació.

Feu clic per veure les observacions i els pronòstics meteorològics.

Per canviar el mapa: feu clic els botons verds amb una creu de color negre per apropar; al botó verd amb un guió per allunyar la imatge; o en les fletxes verdes per a mapes adjacents.


METAR-TAF: